createdAt,value
2022-12-25T00:04:47.357Z,8.74
2022-12-25T00:09:48.806Z,8.74
2022-12-25T00:14:50.480Z,8.75
2022-12-25T00:19:51.904Z,8.79
2022-12-25T00:24:53.378Z,8.82
2022-12-25T00:29:54.985Z,8.73
2022-12-25T00:34:56.435Z,8.66
2022-12-25T00:39:58.024Z,8.62
2022-12-25T00:44:59.428Z,8.61
2022-12-25T00:50:00.941Z,8.71
2022-12-25T00:55:02.829Z,8.65
2022-12-25T01:00:05.092Z,8.68
2022-12-25T01:05:07.453Z,8.69
2022-12-25T01:10:10.892Z,8.62
2022-12-25T01:15:13.176Z,8.61
2022-12-25T01:20:17.285Z,8.59
2022-12-25T01:25:18.758Z,8.59
2022-12-25T01:30:20.212Z,8.63
2022-12-25T01:35:21.765Z,8.64
2022-12-25T01:40:23.296Z,8.56
2022-12-25T01:45:44.025Z,8.66
2022-12-25T01:50:56.322Z,8.74
2022-12-25T01:56:03.322Z,8.74
2022-12-25T02:01:04.824Z,8.84
2022-12-25T02:06:07.385Z,8.88
2022-12-25T02:11:09.241Z,8.81
2022-12-25T02:16:19.556Z,8.93
2022-12-25T02:21:28.727Z,8.87
2022-12-25T02:27:20.867Z,8.90
2022-12-25T02:32:25.316Z,8.98
2022-12-25T02:37:35.905Z,9.02
2022-12-25T02:42:37.318Z,9.04
2022-12-25T02:47:39.422Z,9.16
2022-12-25T02:52:43.546Z,9.19
2022-12-25T02:57:50.447Z,9.10
2022-12-25T03:02:53.643Z,9.17
2022-12-25T03:07:59.309Z,9.15
2022-12-25T03:13:03.534Z,9.11
2022-12-25T03:18:09.905Z,9.10
2022-12-25T03:23:15.374Z,9.10
2022-12-25T03:28:17.031Z,9.10
2022-12-25T03:33:45.634Z,9.06
2022-12-25T03:39:00.651Z,8.98
2022-12-25T03:44:17.329Z,8.99
2022-12-25T03:49:26.542Z,9.01
2022-12-25T03:54:33.566Z,9.04
2022-12-25T03:59:35.086Z,8.99
2022-12-25T04:04:37.181Z,8.97
2022-12-25T04:09:38.602Z,8.93
2022-12-25T04:14:40.094Z,8.91
2022-12-25T04:19:41.581Z,8.98
2022-12-25T04:24:43.052Z,8.97
2022-12-25T04:29:44.626Z,8.95
2022-12-25T04:34:46.174Z,8.90
2022-12-25T04:39:47.710Z,8.96
2022-12-25T04:44:49.233Z,8.93
2022-12-25T04:49:50.841Z,8.95
2022-12-25T04:54:52.349Z,8.98
2022-12-25T04:59:53.796Z,8.99
2022-12-25T05:04:55.307Z,8.99
2022-12-25T05:09:56.783Z,9.02
2022-12-25T05:14:58.359Z,9.06
2022-12-25T05:19:59.943Z,9.10
2022-12-25T05:25:01.471Z,9.02
2022-12-25T05:30:03.841Z,9.01
2022-12-25T05:35:05.700Z,9.02
2022-12-25T05:40:07.799Z,9.06
2022-12-25T05:45:10.547Z,9.01
2022-12-25T05:50:12.204Z,9.01
2022-12-25T05:55:13.681Z,8.99
2022-12-25T06:00:15.364Z,8.97
2022-12-25T06:05:16.874Z,9.01
2022-12-25T06:10:18.441Z,8.95
2022-12-25T06:15:19.849Z,8.94
2022-12-25T06:20:21.599Z,9.00
2022-12-25T06:25:23.037Z,9.03
2022-12-25T06:30:24.461Z,9.07
2022-12-25T06:35:26.512Z,9.04
2022-12-25T06:40:27.935Z,9.10
2022-12-25T06:45:29.404Z,9.05
2022-12-25T06:50:31.132Z,9.06
2022-12-25T06:55:32.762Z,9.03
2022-12-25T07:00:34.242Z,9.02
2022-12-25T07:05:35.783Z,9.05
2022-12-25T07:10:37.292Z,9.06
2022-12-25T07:15:38.758Z,9.11
2022-12-25T07:20:40.167Z,9.15
2022-12-25T07:25:41.689Z,9.20
2022-12-25T07:30:43.187Z,9.17
2022-12-25T07:35:44.666Z,9.21
2022-12-25T07:40:46.174Z,9.25
2022-12-25T07:45:47.715Z,9.30
2022-12-25T07:50:49.215Z,9.33
2022-12-25T07:55:56.960Z,9.34
2022-12-25T08:01:07.260Z,9.42
2022-12-25T08:06:10.556Z,9.46
2022-12-25T08:11:12.185Z,9.54
2022-12-25T08:16:13.865Z,9.49
2022-12-25T08:21:16.168Z,9.50
2022-12-25T08:26:20.889Z,9.51
2022-12-25T08:31:25.923Z,9.55
2022-12-25T08:36:27.463Z,9.64
2022-12-25T08:41:28.924Z,9.66
2022-12-25T08:46:30.626Z,9.51
2022-12-25T08:51:32.137Z,9.59
2022-12-25T08:56:33.653Z,9.58
2022-12-25T09:14:56.535Z,9.57
2022-12-25T09:19:57.971Z,9.48
2022-12-25T09:24:59.668Z,9.63
2022-12-25T09:30:01.118Z,9.74
2022-12-25T09:35:02.632Z,9.79
2022-12-25T09:40:04.626Z,9.85
2022-12-25T09:45:14.715Z,9.71
2022-12-25T09:50:54.484Z,9.90
2022-12-25T09:56:09.788Z,9.93
2022-12-25T10:01:18.830Z,9.95
2022-12-25T10:06:33.871Z,10.02
2022-12-25T10:11:57.151Z,10.09
2022-12-25T10:17:20.846Z,10.09
2022-12-25T10:22:44.333Z,10.17
2022-12-25T10:27:51.955Z,10.08
2022-12-25T10:32:56.161Z,10.10
2022-12-25T10:38:01.212Z,10.22
2022-12-25T10:43:15.390Z,10.26
2022-12-25T10:48:26.329Z,10.41
2022-12-25T10:53:29.670Z,10.41
2022-12-25T10:58:31.758Z,10.41
2022-12-25T11:03:37.284Z,10.52
2022-12-25T11:08:38.963Z,10.53
2022-12-25T11:13:49.853Z,10.40
2022-12-25T11:18:53.853Z,10.41
2022-12-25T11:24:06.545Z,10.40
2022-12-25T11:29:19.880Z,10.58
2022-12-25T11:34:33.518Z,10.39
2022-12-25T11:39:40.068Z,10.38
2022-12-25T11:45:11.825Z,10.49
2022-12-25T11:50:13.335Z,10.56
2022-12-25T11:55:14.849Z,10.59
2022-12-25T12:00:17.374Z,10.58
2022-12-25T12:05:25.664Z,10.63
2022-12-25T12:10:46.056Z,10.65
2022-12-25T12:15:50.213Z,10.69
2022-12-25T12:20:58.608Z,10.67
2022-12-25T12:26:00.381Z,10.61
2022-12-25T12:31:08.027Z,10.67
2022-12-25T12:36:13.580Z,10.68
2022-12-25T12:41:16.019Z,10.69
2022-12-25T12:46:30.124Z,10.69
2022-12-25T12:51:35.083Z,10.56
2022-12-25T12:56:36.669Z,10.61
2022-12-25T13:01:51.668Z,10.68
2022-12-25T13:07:10.174Z,10.68
2022-12-25T13:12:12.919Z,10.81
2022-12-25T13:17:22.176Z,10.81
2022-12-25T13:22:30.916Z,10.71
2022-12-25T13:27:33.645Z,10.67
2022-12-25T13:32:35.239Z,10.74
2022-12-25T13:37:37.297Z,10.83
2022-12-25T13:42:39.089Z,10.75
2022-12-25T13:47:42.208Z,10.75
2022-12-25T13:52:43.766Z,10.69
2022-12-25T13:57:52.411Z,10.74
2022-12-25T14:02:54.934Z,10.70
2022-12-25T14:08:00.011Z,10.60
2022-12-25T14:13:05.489Z,10.79
2022-12-25T14:18:14.056Z,10.58
2022-12-25T14:23:16.051Z,10.62
2022-12-25T14:28:24.939Z,10.53
2022-12-25T14:33:28.067Z,10.56
2022-12-25T14:38:31.772Z,10.57
2022-12-25T14:43:33.564Z,10.60
2022-12-25T14:48:35.002Z,10.62
2022-12-25T14:53:50.551Z,10.56
2022-12-25T14:58:59.608Z,10.58
2022-12-25T15:04:20.528Z,10.60
2022-12-25T15:09:22.776Z,10.67
2022-12-25T15:14:26.227Z,10.66
2022-12-25T15:19:36.905Z,10.65
2022-12-25T15:24:39.111Z,10.61
2022-12-25T15:35:02.401Z,10.58
2022-12-25T15:40:06.360Z,10.57
2022-12-25T15:45:23.134Z,10.51
2022-12-25T15:50:24.753Z,10.38
2022-12-25T15:55:26.252Z,10.39
2022-12-25T16:00:27.706Z,10.50
2022-12-25T16:05:29.286Z,10.36
2022-12-25T16:10:36.627Z,10.31
2022-12-25T16:15:39.893Z,10.37
2022-12-25T16:20:41.342Z,10.35
2022-12-25T16:25:42.807Z,10.28
2022-12-25T16:30:44.434Z,10.34
2022-12-25T16:35:46.155Z,10.43
2022-12-25T16:40:59.600Z,10.39
2022-12-25T16:46:01.149Z,10.41
2022-12-25T16:51:17.217Z,10.41
2022-12-25T16:56:19.743Z,10.49
2022-12-25T17:01:22.563Z,10.44
2022-12-25T17:06:26.438Z,10.42
2022-12-25T17:11:28.803Z,10.46
2022-12-25T17:16:34.014Z,10.40
2022-12-25T17:21:35.865Z,10.39
2022-12-25T17:26:37.660Z,10.45
2022-12-25T17:31:39.820Z,10.49
2022-12-25T17:36:41.336Z,10.46
2022-12-25T17:41:42.853Z,10.57
2022-12-25T17:46:44.504Z,10.55
2022-12-25T17:51:46.604Z,10.51
2022-12-25T17:56:48.072Z,10.52
2022-12-25T18:01:49.907Z,10.49
2022-12-25T18:06:51.573Z,10.48
2022-12-25T18:11:53.036Z,10.49
2022-12-25T18:16:54.721Z,10.53
2022-12-25T18:21:56.354Z,10.45
2022-12-25T18:26:57.920Z,10.42
2022-12-25T18:31:59.529Z,10.46
2022-12-25T18:37:01.227Z,10.55
2022-12-25T18:42:02.730Z,10.43
2022-12-25T18:47:04.473Z,10.50
2022-12-25T18:52:47.756Z,10.53
2022-12-25T18:57:27.439Z,10.43
2022-12-25T19:02:29.416Z,10.45
2022-12-25T19:07:30.975Z,10.33
2022-12-25T19:12:32.964Z,10.32
2022-12-25T19:17:34.597Z,10.33
2022-12-25T19:22:36.106Z,10.25
2022-12-25T19:27:37.660Z,10.12
2022-12-25T19:32:39.248Z,10.06
2022-12-25T19:37:40.671Z,10.07
2022-12-25T19:42:42.262Z,10.21
2022-12-25T19:47:43.711Z,10.28
2022-12-25T19:52:45.184Z,10.29
2022-12-25T19:57:46.665Z,10.25
2022-12-25T20:02:48.450Z,10.21
2022-12-25T20:07:49.987Z,10.17
2022-12-25T20:12:51.489Z,10.17
2022-12-25T20:17:53.032Z,10.15
2022-12-25T20:22:54.717Z,10.28
2022-12-25T20:27:56.287Z,10.40
2022-12-25T20:32:57.790Z,10.34
2022-12-25T20:37:59.330Z,10.35
2022-12-25T20:43:00.860Z,10.26
2022-12-25T20:48:02.321Z,10.26
2022-12-25T20:53:03.856Z,10.19
2022-12-25T20:58:05.403Z,10.10
2022-12-25T21:03:07.361Z,10.18
2022-12-25T21:08:09.201Z,10.04
2022-12-25T21:13:11.540Z,10.04
2022-12-25T21:18:13.136Z,10.01
2022-12-25T21:23:15.728Z,9.98
2022-12-25T21:28:17.290Z,10.13
2022-12-25T21:33:18.887Z,10.09
2022-12-25T21:38:20.472Z,10.15
2022-12-25T21:43:21.959Z,10.19
2022-12-25T21:48:23.478Z,10.09
2022-12-25T21:53:24.998Z,10.12
2022-12-25T21:58:26.599Z,10.21
2022-12-25T22:03:28.180Z,10.12
2022-12-25T22:08:33.093Z,10.12
2022-12-25T22:13:34.618Z,10.22
2022-12-25T22:18:36.146Z,10.11
2022-12-25T22:23:37.709Z,10.15
2022-12-25T22:28:39.276Z,10.22
2022-12-25T22:33:40.846Z,10.20
2022-12-25T22:38:42.823Z,10.28
2022-12-25T22:44:15.928Z,10.25
2022-12-25T22:49:06.232Z,10.25
2022-12-25T22:54:07.743Z,10.29
2022-12-25T22:59:10.080Z,10.22
2022-12-25T23:04:12.580Z,10.33
2022-12-25T23:09:20.573Z,10.39
2022-12-25T23:14:27.111Z,10.39
2022-12-25T23:19:28.533Z,10.39
2022-12-25T23:24:30.075Z,10.39
2022-12-25T23:29:31.581Z,10.49
2022-12-25T23:34:34.222Z,10.42
2022-12-25T23:39:35.672Z,10.28
2022-12-25T23:44:37.226Z,10.33
2022-12-25T23:49:38.889Z,10.38
2022-12-25T23:54:40.333Z,10.34
2022-12-25T23:59:41.798Z,10.31
